Crystal Springs, California
Current Conditions -  °F | °C
As of 5:17 AM on Saturday 20 Dec 2014 (Local Time) from KTVL Reporting Station
Light Snow Light Snow  
Wind Chill: 36°   Ceiling: 2300
Heat Index: 36°   Visibility: 6mi
Dew Point: 31°   Wind: 3mph
Humidity: 82%   Direction: NA
Pressure: 30.11"   Gusts: NA
Location:  38.6924°N, 119.835°W
Report Text: KTVL 201317Z AUTO VRB03KT 6SM -SN BKN023 OVC029 02/M01 A3011 RMK AO2 P0001 T00221006
Loading
Personal Weather Stations






























Interactive Weather Map New forecast layout! Learn more

10-Day Weather Forecast

Advertisements
Track Severe Weather on mobile